Time;durP1;ratioP1;P1;durP2;ratioP2;P2;SDS_P1;SDS_P2;PMS_P1;PMS_P2;Temp;Humidity;BMP_temperature;BMP_pressure;BME280_temperature;BME280_humidity;BME280_pressure;Samples;Min_cycle;Max_cycle;Signal;HPM_P1;HPM_P2
2021/03/04 00:01:14;;;;;;;87.97;56.18;;;;;;;4.15;80.74;100511.30;1721307;81;25768;-72
2021/03/04 00:03:40;;;;;;;96.60;64.17;;;;;;;4.22;80.72;100504.67;1722121;81;25762;-72
2021/03/04 00:06:08;;;;;;;86.45;59.73;;;;;;;4.27;80.65;100496.56;1720427;81;25751;-72
2021/03/04 00:08:34;;;;;;;84.03;56.75;;;;;;;4.35;80.68;100497.26;1723043;81;25799;-71
2021/03/04 00:11:00;;;;;;;82.95;56.15;;;;;;;4.40;80.56;100492.55;1709767;81;26765;-72
2021/03/04 00:13:26;;;;;;;87.50;59.48;;;;;;;4.43;80.47;100489.23;1711239;81;26958;-72
2021/03/04 00:15:54;;;;;;;91.17;57.58;;;;;;;4.47;80.47;100483.33;1708613;82;25793;-72
2021/03/04 00:18:20;;;;;;;79.42;52.35;;;;;;;4.54;80.40;100475.91;1722176;81;25724;-72
2021/03/04 00:20:48;;;;;;;77.72;48.10;;;;;;;4.58;80.31;100478.14;1721830;81;26021;-71
2021/03/04 00:23:14;;;;;;;76.62;47.23;;;;;;;4.63;80.24;100468.69;1721154;81;26360;-72
2021/03/04 00:25:40;;;;;;;71.42;45.15;;;;;;;4.68;80.16;100466.55;1709504;81;25558;-72
2021/03/04 00:28:07;;;;;;;76.25;46.73;;;;;;;4.74;80.11;100461.34;1727853;81;25740;-72
2021/03/04 00:30:33;;;;;;;72.82;44.77;;;;;;;4.79;80.03;100466.98;1721072;81;26461;-72
2021/03/04 00:32:59;;;;;;;76.92;46.95;;;;;;;4.84;79.99;100457.07;1720391;81;25759;-71
2021/03/04 00:35:26;;;;;;;71.15;44.05;;;;;;;4.87;79.91;100446.45;1720492;81;26484;-71
2021/03/04 00:37:52;;;;;;;74.77;44.50;;;;;;;4.92;79.77;100443.02;1720397;81;26287;-71
2021/03/04 00:40:21;;;;;;;68.83;42.30;;;;;;;4.97;79.68;100438.77;1718724;81;26248;-71
2021/03/04 00:42:48;;;;;;;70.97;43.50;;;;;;;5.00;79.49;100443.20;1694671;81;25894;-69
2021/03/04 00:45:17;;;;;;;71.35;41.30;;;;;;;5.02;79.39;100440.03;1722989;81;25708;-69
2021/03/04 00:47:44;;;;;;;74.87;43.28;;;;;;;5.07;79.25;100446.09;1722083;81;25701;-68
2021/03/04 00:50:12;;;;;;;71.53;44.95;;;;;;;5.11;79.15;100435.84;1721140;81;25870;-68
2021/03/04 00:52:38;;;;;;;80.72;51.05;;;;;;;5.14;78.79;100433.48;1722447;81;26597;-68
2021/03/04 00:55:06;;;;;;;77.25;51.80;;;;;;;5.18;78.89;100425.77;1722899;81;25793;-69
2021/03/04 00:57:33;;;;;;;70.87;48.25;;;;;;;5.18;78.79;100418.82;1721602;81;25787;-69
2021/03/04 01:00:00;;;;;;;74.32;50.10;;;;;;;5.19;78.71;100411.41;1723277;81;25716;-71
2021/03/04 01:02:26;;;;;;;70.37;45.75;;;;;;;5.20;78.67;100407.05;1722442;81;25770;-71
2021/03/04 01:04:53;;;;;;;70.45;42.70;;;;;;;5.22;78.55;100402.56;1723373;81;25871;-71
2021/03/04 01:07:19;;;;;;;62.67;36.68;;;;;;;5.26;78.51;100401.34;1723399;81;25797;-71
2021/03/04 01:09:45;;;;;;;72.58;41.05;;;;;;;5.28;78.18;100398.97;1724516;81;26461;-69
2021/03/04 01:12:12;;;;;;;63.60;39.63;;;;;;;5.32;78.29;100395.66;1722465;81;25751;-69
2021/03/04 01:14:38;;;;;;;68.33;41.50;;;;;;;5.34;78.17;100389.84;1722550;81;26269;-69
2021/03/04 01:17:12;;;;;;;73.10;41.05;;;;;;;5.33;78.08;100391.62;1723087;81;25743;-69
2021/03/04 01:19:39;;;;;;;67.70;39.30;;;;;;;5.33;77.97;100385.14;1722103;81;26536;-69
2021/03/04 01:22:05;;;;;;;63.75;38.33;;;;;;;5.31;77.84;100373.27;1723638;81;25879;-69
2021/03/04 01:24:32;;;;;;;63.90;36.93;;;;;;;5.31;77.88;100370.20;1695847;83;25813;-69
2021/03/04 01:26:59;;;;;;;63.50;38.02;;;;;;;5.32;77.72;100374.45;1700371;82;25684;-71
2021/03/04 01:29:25;;;;;;;64.03;38.48;;;;;;;5.32;77.71;100371.85;1717960;81;25720;-71
2021/03/04 01:31:52;;;;;;;70.62;40.33;;;;;;;5.34;77.68;100361.34;1716209;81;25756;-71
2021/03/04 01:34:18;;;;;;;60.78;36.50;;;;;;;5.34;77.66;100358.27;1716741;81;25784;-71
2021/03/04 01:36:45;;;;;;;61.30;36.93;;;;;;;5.36;77.45;100358.63;1707988;81;25707;-71
2021/03/04 01:39:11;;;;;;;70.92;41.63;;;;;;;5.37;77.46;100353.30;1705981;81;25773;-71
2021/03/04 01:41:38;;;;;;;70.17;42.20;;;;;;;5.34;77.26;100345.31;1707225;81;25694;-71
2021/03/04 01:44:07;;;;;;;67.50;38.83;;;;;;;5.35;77.39;100343.56;1695951;81;25672;-71
2021/03/04 01:46:34;;;;;;;74.50;41.65;;;;;;;5.35;77.27;100350.05;1674868;83;25769;-71
2021/03/04 01:49:02;;;;;;;66.22;41.25;;;;;;;5.34;77.31;100348.38;1665951;84;25786;-69
2021/03/04 01:51:29;;;;;;;68.10;38.95;;;;;;;5.31;77.33;100349.46;1698816;83;26594;-69
2021/03/04 01:53:56;;;;;;;67.67;39.18;;;;;;;5.31;77.34;100340.88;1651456;84;25824;-69
2021/03/04 01:56:22;;;;;;;58.50;34.53;;;;;;;5.28;77.29;100339.36;1674443;84;25733;-69
2021/03/04 01:58:49;;;;;;;61.00;37.13;;;;;;;5.28;77.19;100332.88;1680206;83;25785;-72
2021/03/04 02:01:15;;;;;;;57.88;35.00;;;;;;;5.27;77.30;100331.26;1678499;83;26575;-71
2021/03/04 02:03:41;;;;;;;62.33;36.85;;;;;;;5.27;77.26;100331.73;1678029;83;26461;-71
2021/03/04 02:06:08;;;;;;;58.50;36.40;;;;;;;5.26;77.28;100320.53;1679503;83;25874;-71
2021/03/04 02:08:55;;;;;;;62.88;38.38;;;;;;;5.26;77.23;100317.94;1674003;83;25358;-69
2021/03/04 02:11:35;;;;;;;55.80;35.80;;;;;;;5.26;77.31;100312.75;1700660;83;25827;-69
2021/03/04 02:14:13;;;;;;;66.22;38.78;;;;;;;5.24;77.24;100300.43;1699109;83;25696;-70
2021/03/04 02:16:50;;;;;;;56.10;33.95;;;;;;;5.21;77.27;100308.47;1699396;82;25642;-70
2021/03/04 02:19:30;;;;;;;57.00;33.63;;;;;;;5.20;77.30;100299.04;1699374;83;25715;-70
2021/03/04 02:22:34;;;;;;;55.43;33.25;;;;;;;5.20;77.29;100289.16;1643380;84;26010;-70
2021/03/04 02:25:22;;;;;;;59.85;34.15;;;;;;;5.22;77.20;100281.59;1698818;83;26308;-69
2021/03/04 02:27:51;;;;;;;53.42;33.10;;;;;;;5.25;77.30;100283.11;1695003;83;25697;-70
2021/03/04 02:30:23;;;;;;;56.48;31.75;;;;;;;5.26;77.17;100281.66;1672325;83;25888;-70
2021/03/04 02:32:53;;;;;;;54.30;33.78;;;;;;;5.28;77.25;100282.36;1698404;82;25754;-70
2021/03/04 02:35:21;;;;;;;;;;;;;;;5.28;77.18;100278.95;1701902;83;25919;-70
2021/03/04 02:37:52;;;;;;;62.78;34.60;;;;;;;5.30;77.08;100284.34;1699880;83;25826;-71
2021/03/04 02:40:22;;;;;;;57.60;33.30;;;;;;;5.30;77.02;100277.87;1698903;82;25719;-72
2021/03/04 02:42:49;;;;;;;61.90;36.45;;;;;;;5.31;77.18;100276.91;1698598;83;25737;-72
2021/03/04 02:45:17;;;;;;;54.93;33.08;;;;;;;5.32;77.05;100268.67;1703223;82;25738;-70
2021/03/04 02:47:45;;;;;;;58.33;33.60;;;;;;;5.34;77.14;100268.05;1695407;83;25926;-71
2021/03/04 02:50:12;;;;;;;56.63;31.25;;;;;;;5.35;77.15;100271.00;1686663;83;25948;-71
2021/03/04 02:52:39;;;;;;;51.42;31.52;;;;;;;5.34;77.14;100263.67;1714840;81;25811;-71
2021/03/04 02:55:08;;;;;;;52.65;31.73;;;;;;;5.34;77.16;100265.45;1742100;81;26568;-72
2021/03/04 02:57:39;;;;;;;59.58;32.75;;;;;;;5.34;77.14;100257.20;1734862;81;26639;-72
2021/03/04 03:00:09;;;;;;;54.53;33.25;;;;;;;5.36;77.12;100253.67;1741942;81;25734;-72
2021/03/04 03:02:37;;;;;;;48.92;30.12;;;;;;;5.36;77.09;100253.19;1741460;81;25740;-72
2021/03/04 03:05:10;;;;;;;51.73;30.82;;;;;;;5.37;76.98;100250.12;1742167;81;25814;-71
2021/03/04 03:07:42;;;;;;;56.58;34.45;;;;;;;5.37;77.01;100254.81;1742976;81;25813;-72
2021/03/04 03:10:12;;;;;;;53.35;31.62;;;;;;;5.38;77.03;100246.59;1740873;81;25629;-73
2021/03/04 03:12:42;;;;;;;55.38;33.83;;;;;;;5.37;77.03;100243.16;1741118;81;25709;-71
2021/03/04 03:15:11;;;;;;;55.45;32.90;;;;;;;5.36;77.16;100245.41;1671456;84;25663;-73
2021/03/04 03:17:39;;;;;;;56.25;31.23;;;;;;;5.38;77.13;100241.41;1699273;83;25719;-72
2021/03/04 03:20:11;;;;;;;54.67;31.73;;;;;;;5.38;77.13;100238.33;1670272;84;26474;-73
2021/03/04 03:22:38;;;;;;;55.30;30.95;;;;;;;5.39;77.19;100236.08;1698529;83;25342;-70
2021/03/04 03:25:10;;;;;;;51.95;30.90;;;;;;;5.39;77.19;100225.70;1697127;83;25906;-70
2021/03/04 03:27:37;;;;;;;54.30;32.65;;;;;;;5.44;77.18;100226.13;1695105;83;26544;-70
2021/03/04 03:30:20;;;;;;;56.37;33.70;;;;;;;5.45;77.09;100222.56;1704185;82;25717;-70
2021/03/04 03:32:55;;;;;;;57.00;32.75;;;;;;;5.46;76.95;100216.45;1685611;84;25788;-69
2021/03/04 03:35:22;;;;;;;51.85;31.15;;;;;;;5.49;77.03;100214.06;1677160;83;25742;-71
2021/03/04 03:37:49;;;;;;;50.80;31.35;;;;;;;5.50;76.94;100204.02;1679990;84;25747;-71
2021/03/04 03:40:16;;;;;;;54.03;31.02;;;;;;;5.51;76.95;100210.84;1686466;84;25709;-70
2021/03/04 03:42:44;;;;;;;51.20;30.12;;;;;;;5.51;76.91;100205.20;1704017;83;25641;-70
2021/03/04 03:45:18;;;;;;;52.35;30.25;;;;;;;5.50;76.91;100203.55;1713329;81;25912;-71
2021/03/04 03:47:47;;;;;;;56.08;31.90;;;;;;;5.50;76.88;100201.44;1711016;81;26025;-72
2021/03/04 03:50:17;;;;;;;54.13;32.28;;;;;;;5.50;76.90;100203.55;1727649;81;25826;-71
2021/03/04 03:52:45;;;;;;;50.48;30.00;;;;;;;5.49;76.90;100196.73;1727129;81;26114;-70
2021/03/04 03:55:14;;;;;;;58.73;31.15;;;;;;;5.49;76.75;100194.14;1703017;81;25803;-70
2021/03/04 03:57:42;;;;;;;48.17;30.25;;;;;;;5.49;76.81;100186.84;1727487;81;26332;-72
2021/03/04 04:00:13;;;;;;;55.30;32.58;;;;;;;5.49;76.75;100185.06;1703702;81;25782;-71
2021/03/04 04:02:40;;;;;;;55.83;31.57;;;;;;;5.47;76.64;100172.72;1725816;81;25791;-71
2021/03/04 04:05:08;;;;;;;49.65;29.90;;;;;;;5.48;76.80;100179.55;1727947;81;26666;-70
2021/03/04 04:07:35;;;;;;;53.13;32.08;;;;;;;5.47;76.73;100175.31;1728181;81;25795;-71
2021/03/04 04:10:04;;;;;;;54.25;33.18;;;;;;;5.45;76.81;100172.51;1727071;81;25846;-71
2021/03/04 04:12:30;;;;;;;53.05;30.97;;;;;;;5.43;76.84;100170.07;1729161;81;26283;-70
2021/03/04 04:14:57;;;;;;;52.30;30.35;;;;;;;5.42;76.84;100171.00;1728549;81;25808;-70
2021/03/04 04:17:24;;;;;;;52.40;29.32;;;;;;;5.41;76.86;100169.37;1726995;81;26635;-70
2021/03/04 04:19:50;;;;;;;48.30;29.52;;;;;;;5.42;76.86;100164.53;1727287;81;25786;-71
2021/03/04 04:22:18;;;;;;;49.13;29.90;;;;;;;5.44;76.90;100167.81;1713056;83;25776;-71
2021/03/04 04:24:45;;;;;;;53.55;32.78;;;;;;;5.45;76.81;100168.62;1725417;81;25736;-71
2021/03/04 04:27:13;;;;;;;51.18;30.05;;;;;;;5.45;76.78;100168.14;1741264;80;25709;-71
2021/03/04 04:29:40;;;;;;;49.83;30.95;;;;;;;5.43;76.79;100161.00;1741895;80;25721;-71
2021/03/04 04:32:08;;;;;;;54.93;31.80;;;;;;;5.43;76.84;100162.75;1740646;80;25710;-70
2021/03/04 04:34:34;;;;;;;51.13;31.20;;;;;;;5.43;76.87;100158.86;1740839;80;26547;-71
2021/03/04 04:37:00;;;;;;;53.10;29.57;;;;;;;5.41;76.77;100149.94;1740081;80;26550;-71
2021/03/04 04:39:28;;;;;;;47.55;27.82;;;;;;;5.41;76.74;100143.95;1740274;80;25329;-71
2021/03/04 04:41:56;;;;;;;52.45;29.90;;;;;;;5.41;76.76;100142.66;1740316;80;25824;-71
2021/03/04 04:44:22;;;;;;;48.58;29.23;;;;;;;5.43;76.80;100138.13;1705327;82;25642;-71
2021/03/04 04:46:49;;;;;;;47.58;29.20;;;;;;;5.43;76.74;100141.56;1695139;83;25730;-71
2021/03/04 04:49:15;;;;;;;51.63;31.45;;;;;;;5.42;76.75;100138.61;1696543;83;25835;-71
2021/03/04 04:51:41;;;;;;;52.40;29.37;;;;;;;5.41;76.78;100140.88;1674249;84;25761;-71
2021/03/04 04:54:08;;;;;;;47.15;29.55;;;;;;;5.42;76.81;100142.98;1677444;83;26161;-71
2021/03/04 04:56:35;;;;;;;51.33;30.77;;;;;;;5.43;76.79;100136.83;1697748;81;25667;-71
2021/03/04 04:59:01;;;;;;;51.95;31.35;;;;;;;5.42;76.82;100139.91;1694662;83;26686;-71
2021/03/04 05:01:28;;;;;;;50.95;32.60;;;;;;;5.40;76.78;100131.47;1697665;83;25826;-71
2021/03/04 05:03:54;;;;;;;53.78;30.23;;;;;;;5.37;76.81;100128.31;1668931;84;25701;-69
2021/03/04 05:06:21;;;;;;;45.70;26.80;;;;;;;5.33;76.84;100129.08;1698159;83;25725;-68
2021/03/04 05:08:47;;;;;;;51.55;30.82;;;;;;;5.32;76.87;100128.75;1668833;84;25332;-69
2021/03/04 05:11:16;;;;;;;46.50;28.12;;;;;;;5.29;76.93;100127.70;1697339;83;25977;-71
2021/03/04 05:13:44;;;;;;;48.52;29.50;;;;;;;5.29;77.03;100126.40;1695236;82;25705;-71
2021/03/04 05:16:12;;;;;;;46.10;26.40;;;;;;;5.29;77.04;100122.06;1696090;83;25709;-71
2021/03/04 05:18:38;;;;;;;44.50;27.15;;;;;;;5.31;77.08;100120.12;1698725;82;25782;-71
2021/03/04 05:21:06;;;;;;;55.03;31.57;;;;;;;5.31;77.08;100108.95;1696003;82;26029;-71
2021/03/04 05:23:33;;;;;;;53.38;30.88;;;;;;;5.32;77.09;100109.31;1695860;83;26902;-71
2021/03/04 05:26:00;;;;;;;45.12;26.55;;;;;;;5.30;77.12;100105.55;1697611;83;26883;-71
2021/03/04 05:28:26;;;;;;;47.13;27.77;;;;;;;5.30;77.13;100099.55;1694802;83;25771;-69
2021/03/04 05:30:55;;;;;;;48.73;27.85;;;;;;;5.29;77.20;100090.12;1697275;83;25804;-69
2021/03/04 05:33:21;;;;;;;49.67;28.60;;;;;;;5.29;77.26;100088.83;1697691;83;26380;-69
2021/03/04 05:35:48;;;;;;;49.13;27.65;;;;;;;5.30;77.31;100094.37;1700484;83;25824;-69
2021/03/04 05:38:15;;;;;;;44.30;27.58;;;;;;;5.31;77.33;100088.22;1699510;83;26434;-70
2021/03/04 05:40:41;;;;;;;48.52;28.98;;;;;;;5.32;77.34;100087.28;1701244;83;25811;-69
2021/03/04 05:43:10;;;;;;;48.90;28.75;;;;;;;5.34;77.30;100085.35;1674265;84;26222;-68
2021/03/04 05:45:40;;;;;;;46.90;29.25;;;;;;;5.34;77.27;100095.72;1702316;80;25768;-69
2021/03/04 05:48:09;;;;;;;;;;;;;;;5.31;77.28;100092.11;1708283;82;25888;-69
2021/03/04 05:50:41;;;;;;;50.38;28.52;;;;;;;5.29;77.33;100087.53;1684686;84;25690;-69
2021/03/04 05:53:14;;;;;;;46.42;26.82;;;;;;;5.24;77.44;100091.04;1683741;84;25826;-69
2021/03/04 05:55:45;;;;;;;47.88;27.95;;;;;;;5.21;77.52;100090.84;1694331;83;25785;-69
2021/03/04 05:58:13;;;;;;;45.75;28.65;;;;;;;5.20;77.58;100084.00;1701611;83;25748;-69
2021/03/04 06:00:42;;;;;;;49.35;29.20;;;;;;;5.20;77.61;100095.66;1703659;83;25712;-71
2021/03/04 06:03:09;;;;;;;50.38;29.98;;;;;;;5.18;77.64;100087.20;1700077;83;25744;-69
2021/03/04 06:05:36;;;;;;;50.15;28.83;;;;;;;5.20;77.64;100084.48;1678628;83;25856;-69
2021/03/04 06:08:04;;;;;;;44.98;27.82;;;;;;;5.19;77.67;100087.55;1675816;83;25828;-70
2021/03/04 06:10:31;;;;;;;49.75;29.63;;;;;;;5.21;77.79;100082.22;1679195;83;26592;-69
2021/03/04 06:13:19;;;;;;;49.83;28.67;;;;;;;5.22;77.82;100091.65;1684672;84;25789;-69
2021/03/04 06:15:46;;;;;;;48.33;27.45;;;;;;;5.22;77.94;100089.05;1639879;85;25726;-69
2021/03/04 06:18:12;;;;;;;47.40;29.02;;;;;;;5.23;77.96;100095.86;1620185;85;25729;-69
2021/03/04 06:20:41;;;;;;;52.30;32.13;;;;;;;5.22;77.99;100094.23;1641578;85;26697;-71
2021/03/04 06:23:09;;;;;;;57.60;32.60;;;;;;;5.25;78.06;100095.26;1644419;85;25778;-71
2021/03/04 06:25:36;;;;;;;51.83;31.27;;;;;;;5.25;78.08;100090.08;1642545;85;25800;-71
2021/03/04 06:28:05;;;;;;;62.55;36.17;;;;;;;5.28;78.10;100093.69;1641971;85;25931;-71
2021/03/04 06:30:39;;;;;;;58.17;33.53;;;;;;;5.28;78.19;100092.39;1606438;86;25932;-71
2021/03/04 06:33:11;;;;;;;57.53;33.80;;;;;;;5.30;78.23;100087.89;1637029;85;26144;-69
2021/03/04 06:35:43;;;;;;;51.48;30.92;;;;;;;5.31;78.30;100092.92;1638000;85;25818;-69
2021/03/04 06:38:19;;;;;;;52.58;31.35;;;;;;;5.32;78.45;100093.77;1640599;85;25795;-70
2021/03/04 06:40:47;;;;;;;49.50;30.92;;;;;;;5.35;78.55;100097.38;1695756;81;26273;-72
2021/03/04 06:43:23;;;;;;;54.38;33.35;;;;;;;5.39;78.63;100096.61;1726816;81;26525;-72
2021/03/04 06:45:50;;;;;;;50.23;29.60;;;;;;;5.42;78.59;100096.33;1702428;82;25835;-72
2021/03/04 06:48:21;;;;;;;53.95;31.95;;;;;;;5.42;78.66;100095.84;1705486;82;25819;-72
2021/03/04 06:51:00;;;;;;;46.70;26.95;;;;;;;5.44;78.74;100109.98;1706382;82;25747;-72
2021/03/04 06:53:29;;;;;;;46.18;27.77;;;;;;;5.45;78.88;100108.52;1704258;82;25730;-69
2021/03/04 06:56:05;;;;;;;43.40;26.48;;;;;;;5.45;78.99;100113.70;1704502;82;25929;-69
2021/03/04 06:58:36;;;;;;;48.25;27.75;;;;;;;5.47;79.17;100108.40;1705223;82;25747;-72
2021/03/04 07:01:16;;;;;;;45.48;26.68;;;;;;;5.45;79.31;100112.41;1710313;82;25852;-72
2021/03/04 07:03:51;;;;;;;46.35;28.75;;;;;;;5.44;79.33;100110.78;1709776;82;25832;-72
2021/03/04 07:06:24;;;;;;;49.90;28.05;;;;;;;5.44;79.40;100102.20;1704724;82;25800;-70
2021/03/04 07:08:52;;;;;;;45.50;25.40;;;;;;;5.42;79.59;100102.81;1705806;82;25940;-69
2021/03/04 07:11:23;;;;;;;48.78;29.92;;;;;;;5.42;79.76;100101.03;1701598;82;25803;-72
2021/03/04 07:13:51;;;;;;;47.85;27.95;;;;;;;5.42;79.87;100100.22;1705561;82;25800;-72
2021/03/04 07:16:24;;;;;;;50.92;28.75;;;;;;;5.44;80.01;100104.31;1718413;82;25928;-72
2021/03/04 07:18:57;;;;;;;42.58;26.75;;;;;;;5.48;80.15;100099.66;1722822;82;25387;-70
2021/03/04 07:21:27;;;;;;;48.92;27.85;;;;;;;5.52;80.20;100097.95;1712383;82;26536;-70
2021/03/04 07:23:54;;;;;;;43.55;27.75;;;;;;;5.59;80.12;100102.58;1716229;82;25892;-70
2021/03/04 07:26:21;;;;;;;44.30;27.35;;;;;;;5.62;80.17;100107.48;1719832;82;25685;-70
2021/03/04 07:28:50;;;;;;;47.33;27.95;;;;;;;5.63;80.26;100102.66;1719439;82;26511;-69
2021/03/04 07:31:16;;;;;;;45.45;28.62;;;;;;;5.61;80.30;100107.97;1717459;82;25966;-72
2021/03/04 07:33:46;;;;;;;46.70;28.42;;;;;;;5.61;80.29;100106.66;1717610;82;25949;-72
2021/03/04 07:36:15;;;;;;;46.10;28.52;;;;;;;5.59;80.52;100113.76;1718068;82;25765;-72
2021/03/04 07:38:41;;;;;;;43.45;27.42;;;;;;;5.61;80.71;100104.56;1718185;82;25795;-71
2021/03/04 07:41:10;;;;;;;49.10;29.18;;;;;;;5.63;80.52;100102.66;1716347;82;25823;-72
2021/03/04 07:43:48;;;;;;;49.33;30.57;;;;;;;5.65;80.55;100103.34;1717629;82;25945;-72
2021/03/04 07:46:44;;;;;;;45.28;29.87;;;;;;;5.65;80.45;100108.04;1724127;81;26527;-71
2021/03/04 07:49:11;;;;;;;49.63;29.00;;;;;;;5.66;80.58;100105.77;1627078;87;25899;-71
2021/03/04 07:51:48;;;;;;;44.85;28.30;;;;;;;5.68;80.68;100102.57;1627494;86;25949;-69
2021/03/04 07:54:18;;;;;;;45.15;28.47;;;;;;;5.71;80.70;100098.40;1633395;86;26604;-72
2021/03/04 07:56:45;;;;;;;47.73;28.27;;;;;;;5.77;80.67;100099.13;1661311;84;26453;-73
2021/03/04 07:59:17;;;;;;;48.45;28.25;;;;;;;5.84;80.57;100113.66;1636768;86;25749;-71
2021/03/04 08:01:58;;;;;;;50.08;28.02;;;;;;;5.85;80.40;100104.10;1659259;85;25824;-70
2021/03/04 08:04:27;;;;;;;47.98;28.83;;;;;;;5.86;80.31;100102.64;1629257;86;25826;-73
2021/03/04 08:06:55;;;;;;;50.90;29.12;;;;;;;5.78;79.98;100107.27;1648291;85;25810;-72
2021/03/04 08:09:31;;;;;;;66.20;28.25;;;;;;;5.72;80.06;100101.80;1633862;86;25835;-72
2021/03/04 08:12:11;;;;;;;43.70;28.12;;;;;;;5.68;80.24;100106.95;1659666;85;37947;-70
2021/03/04 08:14:41;;;;;;;50.17;28.20;;;;;;;5.66;80.28;100104.96;1631432;85;26747;-73
2021/03/04 08:17:08;;;;;;;47.67;30.37;;;;;;;5.65;80.07;100110.63;1635359;86;26032;-73
2021/03/04 08:19:35;;;;;;;45.85;28.45;;;;;;;5.62;79.96;100119.14;1637509;86;26061;-72
2021/03/04 08:22:08;;;;;;;47.55;31.90;;;;;;;5.60;79.48;100109.41;1640071;86;25704;-71
2021/03/04 08:24:39;;;;;;;47.48;31.42;;;;;;;5.57;79.42;100116.99;1633009;83;26335;-70
2021/03/04 08:27:07;;;;;;;54.80;34.08;;;;;;;5.55;79.48;100106.75;1738514;81;25770;-73
2021/03/04 08:29:34;;;;;;;50.08;31.95;;;;;;;5.54;79.37;100118.56;1747781;81;25360;-68
2021/03/04 08:32:04;;;;;;;54.63;33.80;;;;;;;5.49;79.46;100124.16;1758951;80;26564;-69
2021/03/04 08:34:38;;;;;;;48.78;31.95;;;;;;;5.47;79.58;100132.54;1730224;81;25753;-69
2021/03/04 08:37:06;;;;;;;50.60;31.55;;;;;;;5.45;79.55;100131.85;1733485;81;26359;-71
2021/03/04 08:39:34;;;;;;;51.77;32.83;;;;;;;5.45;79.62;100132.34;1754552;80;26390;-69
2021/03/04 08:42:07;;;;;;;56.75;33.45;;;;;;;5.44;79.69;100134.59;1751481;80;25890;-72
2021/03/04 08:44:34;;;;;;;48.52;32.70;;;;;;;5.42;79.57;100134.72;1700801;81;25832;-72
2021/03/04 08:47:01;;;;;;;48.23;31.73;;;;;;;5.42;79.22;100133.91;1731915;81;25794;-72
2021/03/04 08:49:30;;;;;;;50.20;30.62;;;;;;;5.44;79.13;100126.82;1713375;81;25863;-72
2021/03/04 08:51:57;;;;;;;48.68;29.90;;;;;;;5.43;78.69;100129.89;1734038;81;25790;-73
2021/03/04 08:54:29;;;;;;;45.75;28.92;;;;;;;5.43;78.43;100132.94;1736752;81;25724;-71
2021/03/04 08:57:07;;;;;;;49.75;34.58;;;;;;;5.46;78.42;100136.58;1756365;80;26030;-71
2021/03/04 08:59:34;;;;;;;52.13;34.15;;;;;;;5.45;78.50;100134.44;1744790;81;25858;-68
2021/03/04 09:02:00;;;;;;;51.05;30.95;;;;;;;5.46;78.02;100141.77;1745645;81;25697;-72
2021/03/04 09:04:28;;;;;;;46.73;28.52;;;;;;;5.39;77.76;100140.66;1740978;81;25826;-70
2021/03/04 09:06:55;;;;;;;49.23;29.92;;;;;;;5.36;77.63;100139.65;1743297;81;25875;-70
2021/03/04 09:09:30;;;;;;;46.00;29.45;;;;;;;5.37;77.88;100139.97;1748125;80;26501;-69
2021/03/04 09:11:57;;;;;;;43.55;28.02;;;;;;;5.37;77.83;100162.81;1746141;81;25665;-69
2021/03/04 09:14:34;;;;;;;46.42;29.82;;;;;;;5.32;77.88;100153.36;1734580;81;25873;-69
2021/03/04 09:17:01;;;;;;;46.08;28.87;;;;;;;5.31;78.13;100156.41;1741720;81;25839;-70
2021/03/04 09:19:35;;;;;;;50.65;30.90;;;;;;;5.32;78.18;100155.47;1755505;80;25952;-71
2021/03/04 09:22:07;;;;;;;48.35;31.42;;;;;;;5.32;78.03;100155.47;1754541;79;26387;-70
2021/03/04 09:24:34;;;;;;;48.90;31.60;;;;;;;5.28;77.95;100159.76;1755493;80;25751;-70
2021/03/04 09:27:10;;;;;;;46.40;30.08;;;;;;;5.25;78.02;100156.95;1752718;80;25385;-70
2021/03/04 09:32:34;;;;;;;45.63;30.50;;;;;;;5.15;77.64;100164.38;1797598;77;27686;-68
2021/03/04 09:35:12;;;;;;;58.30;38.45;;;;;;;5.08;77.81;100158.93;1727843;81;25327;-72
2021/03/04 09:37:41;;;;;;;53.23;36.70;;;;;;;5.09;77.88;100162.66;1726745;82;26014;-72
2021/03/04 09:40:08;;;;;;;47.30;32.25;;;;;;;5.05;77.34;100176.04;1716182;81;25844;-69
2021/03/04 09:42:38;;;;;;;58.05;36.95;;;;;;;5.00;76.71;100164.77;1699960;81;26678;-71
2021/03/04 09:45:09;;;;;;;56.00;37.40;;;;;;;4.99;77.28;100168.33;1758167;79;25728;-71
2021/03/04 09:47:39;;;;;;;55.33;36.83;;;;;;;5.00;77.53;100167.84;1769747;79;25327;-70
2021/03/04 09:50:17;;;;;;;52.38;37.80;;;;;;;4.99;77.65;100168.33;1752841;79;25891;-70
2021/03/04 09:52:43;;;;;;;50.10;33.65;;;;;;;5.01;77.53;100177.24;1710981;81;25353;-69
2021/03/04 09:55:17;;;;;;;53.15;36.23;;;;;;;4.94;77.47;100169.20;1686806;83;26619;-70
2021/03/04 09:57:45;;;;;;;56.30;35.92;;;;;;;4.93;77.27;100175.31;1707625;82;25686;-72
2021/03/04 10:00:25;;;;;;;52.05;36.20;;;;;;;4.92;77.32;100179.34;1717690;82;25791;-72
2021/03/04 10:02:54;;;;;;;50.70;37.43;;;;;;;4.93;77.38;100187.45;1706871;82;25816;-73
2021/03/04 10:05:28;;;;;;;52.07;34.27;;;;;;;4.90;77.44;100176.88;1708535;82;25832;-71
2021/03/04 10:07:57;;;;;;;51.63;34.08;;;;;;;4.87;77.00;100183.14;1682464;82;25726;-68
2021/03/04 10:10:23;;;;;;;50.73;34.08;;;;;;;4.83;76.97;100184.85;1701839;82;25748;-70
2021/03/04 10:12:56;;;;;;;46.48;32.67;;;;;;;4.80;76.86;100181.20;1708298;82;25408;-69
2021/03/04 10:15:38;;;;;;;52.30;35.63;;;;;;;4.73;76.59;100181.41;1719163;82;25722;-72
2021/03/04 10:18:15;;;;;;;50.17;32.83;;;;;;;4.64;76.34;100188.20;1709886;82;25952;-72
2021/03/04 10:20:45;;;;;;;45.10;31.68;;;;;;;4.58;76.55;100182.23;1715457;82;25772;-71
2021/03/04 10:23:16;;;;;;;51.05;34.75;;;;;;;4.55;76.41;100187.67;1714778;82;25898;-72
2021/03/04 10:25:44;;;;;;;52.33;32.73;;;;;;;4.50;76.56;100199.72;1715830;82;25874;-68
2021/03/04 10:28:10;;;;;;;56.68;37.20;;;;;;;4.50;76.55;100199.72;1714945;82;25835;-68
2021/03/04 10:30:38;;;;;;;54.40;34.33;;;;;;;4.48;76.55;100201.61;1725098;81;25815;-71
2021/03/04 10:33:28;;;;;;;51.75;32.70;;;;;;;4.48;76.46;100206.79;1719949;81;25850;-68
2021/03/04 10:35:54;;;;;;;57.15;35.92;;;;;;;4.43;76.60;100201.99;1723973;80;26841;-68
2021/03/04 10:38:21;;;;;;;46.65;32.63;;;;;;;4.45;76.79;100203.17;1749446;79;25730;-71
2021/03/04 10:40:47;;;;;;;47.70;32.15;;;;;;;4.45;76.63;100198.81;1725099;79;27967;-71
2021/03/04 10:43:14;;;;;;;51.40;34.90;;;;;;;4.44;76.54;100197.15;1731923;80;26402;-72
2021/03/04 10:45:40;;;;;;;48.98;32.53;;;;;;;4.44;76.75;100201.52;1731158;79;25432;-73
2021/03/04 10:48:08;;;;;;;49.38;31.60;;;;;;;4.45;76.80;100201.88;1740155;80;25889;-72
2021/03/04 10:50:34;;;;;;;48.52;31.55;;;;;;;4.42;76.56;100205.54;1742221;80;25844;-72
2021/03/04 10:53:00;;;;;;;48.25;31.75;;;;;;;4.40;76.58;100200.14;1732534;80;26494;-72
2021/03/04 10:55:28;;;;;;;48.28;31.50;;;;;;;4.39;76.63;100208.84;1717169;80;25945;-72
2021/03/04 10:57:54;;;;;;;47.53;30.85;;;;;;;4.39;76.63;100208.39;1730077;80;25969;-72
2021/03/04 11:00:22;;;;;;;46.85;30.43;;;;;;;4.39;76.69;100207.55;1726364;80;26191;-71
2021/03/04 11:02:48;;;;;;;47.05;32.08;;;;;;;4.37;76.49;100209.47;1747593;80;25775;-69
2021/03/04 11:05:15;;;;;;;48.87;32.70;;;;;;;4.35;76.79;100204.89;1688625;82;26012;-71
2021/03/04 11:07:45;;;;;;;48.17;32.50;;;;;;;4.34;76.70;100202.78;1689340;82;25807;-71
2021/03/04 11:10:12;;;;;;;57.75;35.30;;;;;;;4.35;76.84;100199.71;1700674;82;26658;-71
2021/03/04 11:12:38;;;;;;;49.67;31.73;;;;;;;4.34;76.97;100198.08;1691887;82;25747;-69
2021/03/04 11:15:08;;;;;;;46.42;30.62;;;;;;;4.33;76.87;100197.72;1725635;80;25609;-72
2021/03/04 11:17:35;;;;;;;48.78;31.70;;;;;;;4.32;76.89;100201.27;1711763;82;25749;-69
2021/03/04 11:20:03;;;;;;;48.58;30.35;;;;;;;4.31;76.92;100193.98;1711528;82;25700;-68
2021/03/04 11:22:30;;;;;;;50.40;31.82;;;;;;;4.32;76.91;100197.38;1711880;82;25809;-69
2021/03/04 11:24:56;;;;;;;49.15;32.00;;;;;;;4.30;76.81;100207.84;1715866;80;25720;-69
2021/03/04 11:27:23;;;;;;;45.80;29.70;;;;;;;4.27;76.89;100204.70;1714943;82;25814;-69
2021/03/04 11:29:49;;;;;;;47.40;31.87;;;;;;;4.29;76.95;100210.58;1712913;82;25877;-70